Time;durP1;ratioP1;P1;durP2;ratioP2;P2;SDS_P1;SDS_P2;PMS_P1;PMS_P2;Temp;Humidity;BMP_temperature;BMP_pressure;BME280_temperature;BME280_humidity;BME280_pressure;Samples;Min_cycle;Max_cycle;Signal;HPM_P1;HPM_P2
2023/08/13 00:02:03;;;;;;;10.85;3.65;;;;;;;;;;6287907;22;20051;-89
2023/08/13 00:04:31;;;;;;;11.95;3.83;;;;;;;;;;6315014;22;20030;-88
2023/08/13 00:06:59;;;;;;;12.35;3.92;;;;;;;;;;6315592;22;20034;-89
2023/08/13 00:09:31;;;;;;;15.52;4.65;;;;;;;;;;6290795;22;20070;-88
2023/08/13 00:12:12;;;;;;;;;;;;;;;;;;;;;
2023/08/13 00:14:42;;;;;;;10.80;4.55;;;;;;;;;;6320160;22;20019;-88
2023/08/13 00:17:28;;;;;;;16.25;4.68;;;;;;;;;;6318562;22;20366;-89
2023/08/13 00:19:56;;;;;;;20.13;5.53;;;;;;;;;;6320183;22;20023;-88
2023/08/13 00:22:26;;;;;;;14.68;5.22;;;;;;;;;;6296994;22;20023;-88
2023/08/13 00:24:57;;;;;;;14.13;4.40;;;;;;;;;;6328980;22;20034;-87
2023/08/13 00:27:29;;;;;;;11.10;4.43;;;;;;;;;;6331414;22;20019;-88
2023/08/13 00:30:01;;;;;;;14.18;4.70;;;;;;;;;;6327864;22;20023;-88
2023/08/13 00:32:30;;;;;;;15.48;4.68;;;;;;;;;;6300376;22;20051;-88
2023/08/13 00:35:01;;;;;;;10.05;4.93;;;;;;;;;;6324029;22;20041;-88
2023/08/13 00:37:35;;;;;;;11.32;4.88;;;;;;;;;;6296838;22;20366;-87
2023/08/13 00:40:09;;;;;;;18.83;4.63;;;;;;;;;;6323128;22;20335;-85
2023/08/13 00:43:07;;;;;;;;;;;;;;;;;;;;;
2023/08/13 00:45:38;;;;;;;14.68;4.78;;;;;;;;;;6316302;22;20071;-85
2023/08/13 00:48:06;;;;;;;14.23;5.30;;;;;;;;;;6323617;22;20019;-86
2023/08/13 00:50:39;;;;;;;14.60;4.47;;;;;;;;;;6321986;22;20103;-86
2023/08/13 00:53:16;;;;;;;12.43;4.68;;;;;;;;;;6295248;22;20030;-86
2023/08/13 00:55:55;;;;;;;12.60;4.70;;;;;;;;;;6294649;22;20293;-86
2023/08/13 00:58:24;;;;;;;15.50;4.20;;;;;;;;;;6320695;22;20218;-86
2023/08/13 01:00:56;;;;;;;14.50;3.92;;;;;;;;;;6293183;22;20146;-86
2023/08/13 01:03:36;;;;;;;7.32;3.60;;;;;;;;;;6292690;22;20037;-86
2023/08/13 01:06:21;;;;;;;16.48;3.88;;;;;;;;;;6294325;22;20027;-88
2023/08/13 01:09:17;;;;;;;13.43;4.13;;;;;;;;;;6295652;22;20021;-88
2023/08/13 01:11:54;;;;;;;13.43;4.15;;;;;;;;;;6294309;22;20023;-88
2023/08/13 01:14:42;;;;;;;8.60;3.75;;;;;;;;;;6321028;22;20102;-89
2023/08/13 01:17:11;;;;;;;9.48;4.20;;;;;;;;;;6296861;22;20102;-88
2023/08/13 01:19:42;;;;;;;9.80;3.67;;;;;;;;;;6294814;22;20020;-89
2023/08/13 01:22:13;;;;;;;8.85;3.63;;;;;;;;;;6287301;22;20269;-89
2023/08/13 01:24:44;;;;;;;15.48;4.82;;;;;;;;;;6289842;22;20081;-89
2023/08/13 01:27:31;;;;;;;10.57;3.80;;;;;;;;;;6289173;22;20043;-89
2023/08/13 01:30:22;;;;;;;8.90;3.75;;;;;;;;;;6287223;22;20082;-89
2023/08/13 01:33:03;;;;;;;10.98;3.38;;;;;;;;;;6287210;22;20024;-89
2023/08/13 01:35:38;;;;;;;15.27;3.25;;;;;;;;;;6287871;22;20027;-89
2023/08/13 01:38:07;;;;;;;16.23;3.30;;;;;;;;;;6284471;22;20031;-89
2023/08/13 01:40:40;;;;;;;17.73;3.45;;;;;;;;;;6287787;22;20248;-88
2023/08/13 01:43:11;;;;;;;8.88;3.30;;;;;;;;;;6290763;22;20042;-88
2023/08/13 01:45:40;;;;;;;10.27;3.10;;;;;;;;;;6290429;22;20076;-88
2023/08/13 01:48:15;;;;;;;8.45;3.63;;;;;;;;;;6286183;22;20168;-88
2023/08/13 01:51:01;;;;;;;9.07;2.90;;;;;;;;;;6286957;22;20081;-89
2023/08/13 01:53:39;;;;;;;11.60;3.38;;;;;;;;;;6287769;22;20012;-88
2023/08/13 01:56:09;;;;;;;10.45;3.30;;;;;;;;;;6284825;22;20012;-89
2023/08/13 01:58:37;;;;;;;11.90;3.88;;;;;;;;;;6286495;22;20405;-89
2023/08/13 02:01:21;;;;;;;13.18;4.03;;;;;;;;;;6277125;22;20062;-89
2023/08/13 02:03:49;;;;;;;15.43;4.03;;;;;;;;;;6286173;22;20035;-88
2023/08/13 02:06:31;;;;;;;13.43;3.92;;;;;;;;;;6286192;22;20106;-88
2023/08/13 02:09:00;;;;;;;11.15;3.33;;;;;;;;;;6286710;22;20020;-89
2023/08/13 02:11:31;;;;;;;14.85;3.83;;;;;;;;;;6283834;22;20030;-89
2023/08/13 02:14:11;;;;;;;11.93;3.72;;;;;;;;;;6284639;22;20074;-87
2023/08/13 02:16:46;;;;;;;9.82;3.30;;;;;;;;;;6285666;22;20024;-87
2023/08/13 02:19:18;;;;;;;;;;;;;;;;;;6288461;22;20477;-86
2023/08/13 02:21:48;;;;;;;8.95;3.10;;;;;;;;;;6293399;22;19915;-87
2023/08/13 02:24:21;;;;;;;9.60;3.40;;;;;;;;;;6297311;22;20023;-85
2023/08/13 02:27:11;;;;;;;13.95;3.45;;;;;;;;;;6293026;22;20027;-86
2023/08/13 02:29:43;;;;;;;16.83;4.05;;;;;;;;;;6323184;22;20023;-86
2023/08/13 02:32:15;;;;;;;12.85;3.65;;;;;;;;;;6297942;22;20034;-85
2023/08/13 02:34:59;;;;;;;8.20;3.05;;;;;;;;;;6298532;22;20011;-88
2023/08/13 02:37:28;;;;;;;10.50;4.20;;;;;;;;;;6293494;22;20118;-85
2023/08/13 02:39:59;;;;;;;16.40;3.20;;;;;;;;;;6288339;22;20106;-85
2023/08/13 02:42:58;;;;;;;7.35;2.78;;;;;;;;;;6316958;22;20031;-85
2023/08/13 02:45:26;;;;;;;9.15;3.08;;;;;;;;;;6317544;22;20069;-88
2023/08/13 02:47:56;;;;;;;11.20;2.88;;;;;;;;;;6291254;22;20123;-87
2023/08/13 02:50:28;;;;;;;11.65;3.22;;;;;;;;;;6291920;22;20019;-88
2023/08/13 02:52:55;;;;;;;16.70;3.60;;;;;;;;;;6317815;22;20049;-88
2023/08/13 02:55:33;;;;;;;10.80;3.88;;;;;;;;;;6295290;22;20149;-88
2023/08/13 02:58:02;;;;;;;13.57;3.73;;;;;;;;;;6324657;22;20075;-86
2023/08/13 03:00:40;;;;;;;13.70;3.30;;;;;;;;;;6300784;22;20019;-86
2023/08/13 03:03:08;;;;;;;9.32;3.65;;;;;;;;;;6298002;22;20023;-87
2023/08/13 03:05:46;;;;;;;8.50;3.35;;;;;;;;;;6298753;22;20030;-85
2023/08/13 03:08:17;;;;;;;11.77;3.25;;;;;;;;;;6297037;22;20054;-85
2023/08/13 03:10:51;;;;;;;11.77;2.97;;;;;;;;;;6301600;22;20123;-86
2023/08/13 03:13:29;;;;;;;9.82;2.92;;;;;;;;;;6303274;22;20023;-86
2023/08/13 03:16:05;;;;;;;10.88;2.78;;;;;;;;;;6293823;22;20242;-86
2023/08/13 03:18:35;;;;;;;8.98;2.92;;;;;;;;;;6296224;22;20125;-86
2023/08/13 03:21:23;;;;;;;8.48;3.10;;;;;;;;;;6298158;22;20027;-87
2023/08/13 03:24:11;;;;;;;12.98;3.67;;;;;;;;;;6295161;22;20027;-86
2023/08/13 03:26:49;;;;;;;;;;;;;;;;;;;;;
2023/08/13 03:29:41;;;;;;;12.43;3.50;;;;;;;;;;6322894;22;20023;-87
2023/08/13 03:32:11;;;;;;;13.95;3.80;;;;;;;;;;6321470;22;20046;-86
2023/08/13 03:34:42;;;;;;;9.27;3.05;;;;;;;;;;6294661;22;20023;-86
2023/08/13 03:37:21;;;;;;;13.38;3.40;;;;;;;;;;6295473;22;20081;-87
2023/08/13 03:40:11;;;;;;;8.52;3.03;;;;;;;;;;6298819;22;20023;-87
2023/08/13 03:43:13;;;;;;;8.27;2.88;;;;;;;;;;6295669;22;20297;-87
2023/08/13 03:46:02;;;;;;;12.68;3.83;;;;;;;;;;6289964;22;20027;-87
2023/08/13 03:48:41;;;;;;;8.93;3.72;;;;;;;;;;6318610;22;20030;-86
2023/08/13 03:51:13;;;;;;;9.57;3.80;;;;;;;;;;6319297;22;20069;-85
2023/08/13 03:53:44;;;;;;;15.57;4.00;;;;;;;;;;6292690;22;20062;-86
2023/08/13 03:56:14;;;;;;;15.75;4.55;;;;;;;;;;6318220;22;20045;-86
2023/08/13 03:58:45;;;;;;;12.00;4.03;;;;;;;;;;6317907;22;20062;-86
2023/08/13 04:01:15;;;;;;;7.65;3.72;;;;;;;;;;6291682;22;20110;-86
2023/08/13 04:03:50;;;;;;;15.63;4.40;;;;;;;;;;6295486;22;20019;-87
2023/08/13 04:06:29;;;;;;;8.45;3.70;;;;;;;;;;6291773;22;20490;-87
2023/08/13 04:09:02;;;;;;;10.77;3.85;;;;;;;;;;6291994;22;20183;-87
2023/08/13 04:11:38;;;;;;;12.07;3.88;;;;;;;;;;6291532;22;20431;-87
2023/08/13 04:14:12;;;;;;;11.25;3.08;;;;;;;;;;6290984;22;20019;-87
2023/08/13 04:16:51;;;;;;;10.70;3.75;;;;;;;;;;6297477;22;20085;-85
2023/08/13 04:19:44;;;;;;;;;;;;;;;;;;;;;
2023/08/13 04:22:25;;;;;;;;;;;;;;;;;;;;;
2023/08/13 04:24:54;;;;;;;16.50;3.47;;;;;;;;;;6283811;22;20394;-87
2023/08/13 04:27:35;;;;;;;14.57;3.70;;;;;;;;;;6257246;22;20019;-86
2023/08/13 04:30:19;;;;;;;12.23;4.65;;;;;;;;;;6260428;22;20141;-87
2023/08/13 04:33:05;;;;;;;15.88;3.72;;;;;;;;;;6255484;22;20023;-86
2023/08/13 04:35:39;;;;;;;8.27;4.18;;;;;;;;;;6261884;22;20062;-87
2023/08/13 04:38:09;;;;;;;11.30;4.13;;;;;;;;;;6259625;22;20028;-86
2023/08/13 04:40:36;;;;;;;13.35;4.70;;;;;;;;;;6258370;22;20488;-85
2023/08/13 04:43:18;;;;;;;14.27;4.15;;;;;;;;;;6253049;22;20051;-88
2023/08/13 04:45:47;;;;;;;10.30;4.57;;;;;;;;;;6289732;22;20047;-87
2023/08/13 04:48:34;;;;;;;14.88;4.60;;;;;;;;;;6290268;22;20015;-86
2023/08/13 04:51:22;;;;;;;13.10;4.20;;;;;;;;;;6284242;22;20354;-86
2023/08/13 04:53:57;;;;;;;9.90;4.18;;;;;;;;;;6258329;22;20020;-86
2023/08/13 04:56:24;;;;;;;13.50;4.40;;;;;;;;;;6284331;22;20166;-86
2023/08/13 04:58:54;;;;;;;15.55;5.45;;;;;;;;;;6260823;22;20034;-86
2023/08/13 05:01:26;;;;;;;10.82;4.22;;;;;;;;;;6286669;22;20077;-89
2023/08/13 05:03:54;;;;;;;14.63;4.53;;;;;;;;;;6260700;22;20153;-89
2023/08/13 05:06:25;;;;;;;19.08;4.45;;;;;;;;;;6260667;22;20063;-89
2023/08/13 05:08:52;;;;;;;8.18;3.95;;;;;;;;;;6284349;22;20027;-89
2023/08/13 05:11:21;;;;;;;15.02;4.20;;;;;;;;;;6262470;22;20039;-89
2023/08/13 05:13:54;;;;;;;12.18;3.30;;;;;;;;;;6263940;22;20066;-89
2023/08/13 05:16:32;;;;;;;9.10;2.97;;;;;;;;;;6289703;22;20027;-89
2023/08/13 05:19:03;;;;;;;10.63;3.08;;;;;;;;;;6262438;22;20019;-89
2023/08/13 05:21:50;;;;;;;12.35;3.25;;;;;;;;;;6256392;23;20058;-89
2023/08/13 05:24:19;;;;;;;7.80;2.60;;;;;;;;;;6258001;22;20109;-89
2023/08/13 05:26:57;;;;;;;6.78;2.22;;;;;;;;;;6264788;23;20004;-90
2023/08/13 05:29:25;;;;;;;8.48;2.58;;;;;;;;;;6272169;22;20012;-89
2023/08/13 05:32:08;;;;;;;;;;;;;;;;;;;;;
2023/08/13 05:34:41;;;;;;;8.55;2.47;;;;;;;;;;6266992;22;20088;-89
2023/08/13 05:37:09;;;;;;;10.48;2.42;;;;;;;;;;6266329;22;20008;-89
2023/08/13 05:39:40;;;;;;;7.93;2.58;;;;;;;;;;6264860;23;20185;-89
2023/08/13 05:42:08;;;;;;;8.38;2.28;;;;;;;;;;6262216;23;20067;-88
2023/08/13 05:44:36;;;;;;;9.52;2.42;;;;;;;;;;6262688;22;20028;-90
2023/08/13 05:47:11;;;;;;;8.57;2.42;;;;;;;;;;6262864;23;20039;-91
2023/08/13 05:49:40;;;;;;;10.73;2.38;;;;;;;;;;6262765;23;20019;-90
2023/08/13 05:52:11;;;;;;;9.35;2.38;;;;;;;;;;6264765;22;20055;-90
2023/08/13 05:54:39;;;;;;;10.52;2.17;;;;;;;;;;6269043;22;20027;-90
2023/08/13 05:57:07;;;;;;;8.48;2.47;;;;;;;;;;6263617;22;20039;-88
2023/08/13 05:59:40;;;;;;;11.70;2.10;;;;;;;;;;6262662;23;20020;-90
2023/08/13 06:02:14;;;;;;;7.95;2.90;;;;;;;;;;6296588;22;20032;-90
2023/08/13 06:04:48;;;;;;;9.75;2.25;;;;;;;;;;6297262;22;20024;-90
2023/08/13 06:07:23;;;;;;;9.57;2.60;;;;;;;;;;6271897;22;20027;-90
2023/08/13 06:09:55;;;;;;;9.52;2.00;;;;;;;;;;6271936;22;20264;-90
2023/08/13 06:12:29;;;;;;;9.50;2.47;;;;;;;;;;6271544;22;20078;-90
2023/08/13 06:15:01;;;;;;;8.82;2.65;;;;;;;;;;6272433;22;20008;-89
2023/08/13 06:17:47;;;;;;;7.53;1.77;;;;;;;;;;6272755;22;20068;-90
2023/08/13 06:20:17;;;;;;;7.05;2.08;;;;;;;;;;6272189;22;20031;-92
2023/08/13 06:22:48;;;;;;;9.18;1.90;;;;;;;;;;6270860;22;20030;-90
2023/08/13 06:25:20;;;;;;;8.95;2.17;;;;;;;;;;6270495;22;20020;-90
2023/08/13 06:27:48;;;;;;;10.30;2.53;;;;;;;;;;6271713;22;20076;-90
2023/08/13 06:30:17;;;;;;;7.32;2.22;;;;;;;;;;6271485;22;20019;-90
2023/08/13 06:32:49;;;;;;;9.75;2.42;;;;;;;;;;6271653;22;20019;-89
2023/08/13 06:35:23;;;;;;;10.15;2.40;;;;;;;;;;6270909;22;20279;-90
2023/08/13 06:37:54;;;;;;;8.45;2.40;;;;;;;;;;6270512;22;20035;-91
2023/08/13 06:40:50;;;;;;;;;;;;;;;;;;;;;
2023/08/13 06:43:36;;;;;;;8.68;2.30;;;;;;;;;;6293988;22;20100;-90
2023/08/13 06:46:15;;;;;;;6.93;1.85;;;;;;;;;;6270913;22;20019;-91
2023/08/13 06:48:56;;;;;;;8.35;1.98;;;;;;;;;;6272146;22;20035;-89
2023/08/13 06:51:41;;;;;;;9.88;2.00;;;;;;;;;;6269867;22;20063;-92
2023/08/13 06:54:40;;;;;;;11.77;2.50;;;;;;;;;;6269592;23;20028;-91
2023/08/13 06:57:47;;;;;;;9.57;2.10;;;;;;;;;;6270370;23;20038;-91
2023/08/13 07:01:13;;;;;;;10.82;2.10;;;;;;;;;;5156185;27;20729;-90
2023/08/13 07:10:55;;;;;;;7.75;1.42;;;;;;;;;;5135326;28;20050;-91
2023/08/13 07:13:55;;;;;;;9.43;2.17;;;;;;;;;;5117633;28;20032;-91
2023/08/13 07:16:37;;;;;;;7.15;1.45;;;;;;;;;;5135284;28;20050;-92
2023/08/13 07:19:30;;;;;;;14.70;1.97;;;;;;;;;;5118369;28;20108;-90
2023/08/13 07:22:51;;;;;;;;;;;;;;;;;;;;;
2023/08/13 07:25:47;;;;;;;12.25;1.90;;;;;;;;;;5116422;28;20061;-89
2023/08/13 07:28:51;;;;;;;7.63;2.10;;;;;;;;;;5134560;28;20032;-90
2023/08/13 07:31:40;;;;;;;11.27;2.17;;;;;;;;;;5117712;28;20032;-89
2023/08/13 07:37:59;;;;;;;;;;;;;;;;;;;;;
2023/08/13 07:40:48;;;;;;;7.90;2.30;;;;;;;;;;5134212;28;20062;-92
2023/08/13 07:43:54;;;;;;;10.30;1.90;;;;;;;;;;5109717;28;20039;-90
2023/08/13 07:46:58;;;;;;;10.30;2.15;;;;;;;;;;5087950;28;20149;-90
2023/08/13 07:59:59;;;;;;;9.18;1.88;;;;;;;;;;5122883;28;20122;-90
2023/08/13 08:02:53;;;;;;;9.02;2.75;;;;;;;;;;5113757;28;20041;-89
2023/08/13 08:08:57;;;;;;;7.75;1.90;;;;;;;;;;5113848;28;20023;-91
2023/08/13 08:12:22;;;;;;;10.27;2.10;;;;;;;;;;5087264;28;20029;-91
2023/08/13 08:15:06;;;;;;;8.05;2.03;;;;;;;;;;4999711;28;20058;-91
2023/08/13 08:17:58;;;;;;;7.15;2.20;;;;;;;;;;4998229;28;20046;-89
2023/08/13 08:23:45;;;;;;;7.70;1.65;;;;;;;;;;5367948;22;20074;-90
2023/08/13 08:32:41;;;;;;;;;;;;;;;;;;;;;
2023/08/13 08:35:45;;;;;;;10.00;1.85;;;;;;;;;;5094569;28;20048;-91
2023/08/13 08:41:16;;;;;;;5.88;1.45;;;;;;;;;;5230869;22;20066;-90
2023/08/13 08:43:52;;;;;;;8.70;1.50;;;;;;;;;;5102954;28;20035;-91
2023/08/13 08:46:27;;;;;;;7.60;1.67;;;;;;;;;;5101809;28;20051;-91
2023/08/13 08:52:50;;;;;;;10.05;1.45;;;;;;;;;;5119419;28;20034;-91
2023/08/13 08:55:52;;;;;;;;;;;;;;;;;;;;;
2023/08/13 08:58:58;;;;;;;6.28;1.13;;;;;;;;;;5115576;28;20048;-88
2023/08/13 09:02:16;;;;;;;6.05;1.42;;;;;;;;;;5454491;22;20060;-88
2023/08/13 09:05:38;;;;;;;;;;;;;;;;;;;;;
2023/08/13 09:12:40;;;;;;;4.30;1.13;;;;;;;;;;5083518;28;20049;-90
2023/08/13 09:15:53;;;;;;;10.07;1.33;;;;;;;;;;5011740;28;20046;-89
2023/08/13 09:36:21;;;;;;;3.38;1.02;;;;;;;;;;5361298;22;20055;-88
2023/08/13 09:48:32;;;;;;;6.85;0.77;;;;;;;;;;5088922;28;20107;-89
2023/08/13 09:58:01;;;;;;;7.40;0.90;;;;;;;;;;5104296;22;20048;-89
2023/08/13 10:42:43;;;;;;;3.45;0.80;;;;;;;;;;4622817;22;20056;-91
2023/08/13 10:46:07;;;;;;;;;;;;;;;;;;;;;
2023/08/13 10:52:21;;;;;;;2.85;0.80;;;;;;;;;;5062219;28;20046;-92
2023/08/13 11:02:08;;;;;;;1.95;0.52;;;;;;;;;;5115333;28;20032;-92
2023/08/13 11:04:54;;;;;;;4.00;0.70;;;;;;;;;;4996967;28;20061;-90
2023/08/13 11:08:05;;;;;;;3.83;0.90;;;;;;;;;;4973557;28;20056;-89
2023/08/13 11:14:50;;;;;;;2.45;0.50;;;;;;;;;;4975095;28;20035;-92
2023/08/13 11:24:50;;;;;;;1.42;0.50;;;;;;;;;;4992698;28;20058;-91
2023/08/13 11:37:28;;;;;;;6.45;0.95;;;;;;;;;;5094743;28;20040;-91
2023/08/13 11:40:37;;;;;;;4.13;0.60;;;;;;;;;;5094007;28;20061;-90
2023/08/13 11:43:42;;;;;;;2.05;0.50;;;;;;;;;;5096205;28;20050;-92
2023/08/13 11:46:38;;;;;;;;;;;;;;;;;;;;;
2023/08/13 11:55:26;;;;;;;4.78;0.77;;;;;;;;;;5246948;22;20037;-89
2023/08/13 14:06:57;;;;;;;4.80;0.70;;;;;;;;;;4979537;28;20106;-91
2023/08/13 14:09:48;;;;;;;4.57;0.60;;;;;;;;;;4962686;28;20063;-91
2023/08/13 14:15:58;;;;;;;4.10;0.60;;;;;;;;;;5022870;23;20053;-90
2023/08/13 14:18:43;;;;;;;4.72;0.73;;;;;;;;;;5002383;28;20038;-90
2023/08/13 14:21:43;;;;;;;2.60;0.60;;;;;;;;;;5001330;28;20040;-90
2023/08/13 14:24:27;;;;;;;5.82;0.73;;;;;;;;;;5013643;28;20066;-89
2023/08/13 14:34:52;;;;;;;1.75;0.60;;;;;;;;;;6012362;23;20296;-90
2023/08/13 14:38:35;;;;;;;;;;;;;;;;;;;;;
2023/08/13 16:47:36;;;;;;;5.40;1.00;;;;;;;;;;5004919;28;20061;-90
2023/08/13 16:54:07;;;;;;;5.97;1.40;;;;;;;;;;5298416;23;20081;-91
2023/08/13 16:57:16;;;;;;;4.45;0.90;;;;;;;;;;5001462;28;20147;-89
2023/08/13 18:11:33;;;;;;;3.53;0.70;;;;;;;;;;4905115;29;20047;-90
2023/08/13 18:43:31;;;;;;;6.53;1.20;;;;;;;;;;5013292;28;20107;-90
2023/08/13 18:46:34;;;;;;;3.80;1.10;;;;;;;;;;4999423;28;20141;-91
2023/08/13 18:49:41;;;;;;;10.13;1.80;;;;;;;;;;5003370;28;20461;-91
2023/08/13 18:52:43;;;;;;;4.32;1.70;;;;;;;;;;5002205;28;20119;-90
2023/08/13 18:55:28;;;;;;;17.05;2.05;;;;;;;;;;4973490;28;20310;-91
2023/08/13 18:58:18;;;;;;;11.20;1.48;;;;;;;;;;4990672;28;20047;-90
2023/08/13 19:05:07;;;;;;;6.28;1.92;;;;;;;;;;5004917;28;20051;-91
2023/08/13 19:08:04;;;;;;;3.83;1.67;;;;;;;;;;4992920;28;20042;-92
2023/08/13 19:11:01;;;;;;;6.95;1.52;;;;;;;;;;4995191;28;20050;-91
2023/08/13 19:13:41;;;;;;;3.70;1.27;;;;;;;;;;4989946;28;20237;-90
2023/08/13 19:16:16;;;;;;;5.25;1.70;;;;;;;;;;5001495;28;20077;-90
2023/08/13 19:18:48;;;;;;;3.80;1.67;;;;;;;;;;5000674;28;20423;-90
2023/08/13 19:21:32;;;;;;;6.47;1.85;;;;;;;;;;4981916;28;20050;-90
2023/08/13 19:24:41;;;;;;;;;;;;;;;;;;;;;
2023/08/13 19:27:41;;;;;;;7.47;1.70;;;;;;;;;;5003683;28;20058;-91
2023/08/13 19:30:44;;;;;;;4.78;1.40;;;;;;;;;;5002633;28;20469;-91
2023/08/13 19:33:47;;;;;;;;;;;;;;;;;;;;;
2023/08/13 19:40:10;;;;;;;3.83;1.60;;;;;;;;;;5006250;28;20199;-90
2023/08/13 20:38:14;;;;;;;13.82;3.00;;;;;;;;;;4991675;28;20055;-89
2023/08/13 20:41:00;;;;;;;11.63;3.25;;;;;;;;;;4971158;28;20110;-88
2023/08/13 20:43:55;;;;;;;26.02;8.32;;;;;;;;;;4969195;28;20418;-88
2023/08/13 20:47:01;;;;;;;12.32;4.45;;;;;;;;;;4970404;28;20034;-88
2023/08/13 20:49:42;;;;;;;12.40;3.83;;;;;;;;;;4980780;28;20043;-89
2023/08/13 20:52:20;;;;;;;6.82;2.17;;;;;;;;;;4969325;28;20103;-87
2023/08/13 20:55:08;;;;;;;7.97;2.22;;;;;;;;;;4967766;28;20287;-88
2023/08/13 20:57:54;;;;;;;8.15;2.13;;;;;;;;;;4964536;28;20051;-89
2023/08/13 21:00:30;;;;;;;8.40;2.20;;;;;;;;;;4969660;28;20042;-89
2023/08/13 21:03:12;;;;;;;9.95;1.98;;;;;;;;;;4967268;28;20071;-88
2023/08/13 21:05:56;;;;;;;10.80;2.10;;;;;;;;;;4977328;28;20057;-88
2023/08/13 21:08:39;;;;;;;8.85;2.00;;;;;;;;;;4971314;28;20114;-88
2023/08/13 21:11:13;;;;;;;4.85;2.20;;;;;;;;;;4967770;28;20066;-88
2023/08/13 21:14:01;;;;;;;9.05;2.28;;;;;;;;;;4968378;28;20134;-90
2023/08/13 21:16:58;;;;;;;8.38;2.55;;;;;;;;;;4975787;28;20054;-89
2023/08/13 21:19:40;;;;;;;9.43;2.10;;;;;;;;;;4984772;28;20544;-90
2023/08/13 21:22:52;;;;;;;6.35;2.13;;;;;;;;;;4969558;28;20095;-90
2023/08/13 21:25:33;;;;;;;6.82;2.67;;;;;;;;;;4965953;28;20069;-91
2023/08/13 21:28:31;;;;;;;5.43;2.20;;;;;;;;;;4974529;28;20077;-91
2023/08/13 21:31:15;;;;;;;8.48;1.70;;;;;;;;;;4969878;28;20077;-91
2023/08/13 21:33:52;;;;;;;7.30;2.33;;;;;;;;;;4966469;28;20105;-89
2023/08/13 21:37:03;;;;;;;8.90;2.10;;;;;;;;;;4955950;28;20055;-89
2023/08/13 21:43:08;;;;;;;5.63;2.17;;;;;;;;;;4960328;29;20051;-89
2023/08/13 21:45:48;;;;;;;4.80;1.90;;;;;;;;;;4960374;29;20058;-88
2023/08/13 21:48:57;;;;;;;7.38;1.98;;;;;;;;;;4960003;29;20249;-90
2023/08/13 21:51:43;;;;;;;9.77;1.80;;;;;;;;;;4963606;28;20058;-90
2023/08/13 21:54:17;;;;;;;9.32;2.22;;;;;;;;;;4948558;29;20423;-90
2023/08/13 21:57:03;;;;;;;10.68;2.60;;;;;;;;;;4965241;29;20055;-90
2023/08/13 21:59:39;;;;;;;4.55;1.85;;;;;;;;;;4964998;29;20058;-90
2023/08/13 22:05:49;;;;;;;7.95;2.15;;;;;;;;;;4972222;29;20033;-90
2023/08/13 22:08:27;;;;;;;8.05;2.22;;;;;;;;;;4966668;28;20067;-90
2023/08/13 22:10:57;;;;;;;10.48;2.08;;;;;;;;;;4950342;29;20086;-90
2023/08/13 22:13:43;;;;;;;8.13;2.10;;;;;;;;;;4965288;29;20082;-90
2023/08/13 22:16:41;;;;;;;7.53;2.25;;;;;;;;;;4962987;29;20069;-90
2023/08/13 22:19:21;;;;;;;9.05;2.13;;;;;;;;;;4969836;28;20224;-90
2023/08/13 22:22:02;;;;;;;11.88;2.65;;;;;;;;;;4953937;29;20122;-90
2023/08/13 22:24:39;;;;;;;8.75;2.10;;;;;;;;;;4966695;28;20051;-91
2023/08/13 22:27:41;;;;;;;6.07;2.10;;;;;;;;;;4968998;29;20055;-90
2023/08/13 22:30:21;;;;;;;5.93;1.77;;;;;;;;;;4966221;28;20055;-91
2023/08/13 22:33:04;;;;;;;8.77;2.35;;;;;;;;;;4966767;28;20058;-90
2023/08/13 22:35:35;;;;;;;8.52;2.13;;;;;;;;;;4966267;29;20078;-90
2023/08/13 22:38:05;;;;;;;6.18;2.42;;;;;;;;;;4984914;28;20055;-90
2023/08/13 22:40:40;;;;;;;9.10;2.97;;;;;;;;;;4971897;28;20054;-90
2023/08/13 22:43:21;;;;;;;9.82;3.08;;;;;;;;;;4987467;28;20055;-91
2023/08/13 22:45:53;;;;;;;7.38;2.22;;;;;;;;;;4987383;28;20061;-89
2023/08/13 22:48:23;;;;;;;7.65;2.40;;;;;;;;;;4989205;28;20039;-91
2023/08/13 22:51:32;;;;;;;11.27;2.45;;;;;;;;;;4968512;28;20062;-90
2023/08/13 22:54:24;;;;;;;10.07;2.08;;;;;;;;;;4972910;28;20073;-90
2023/08/13 22:57:27;;;;;;;6.32;2.03;;;;;;;;;;4985204;28;20311;-90
2023/08/13 23:00:10;;;;;;;11.48;2.45;;;;;;;;;;4983551;28;20142;-90
2023/08/13 23:02:51;;;;;;;8.60;2.35;;;;;;;;;;4986708;28;20121;-90
2023/08/13 23:05:23;;;;;;;6.55;2.20;;;;;;;;;;4986073;28;20051;-90
2023/08/13 23:08:02;;;;;;;7.60;2.30;;;;;;;;;;4986840;28;20058;-90
2023/08/13 23:10:43;;;;;;;9.73;2.28;;;;;;;;;;4983238;28;20425;-90
2023/08/13 23:13:18;;;;;;;6.88;2.40;;;;;;;;;;4971060;28;20226;-90
2023/08/13 23:15:51;;;;;;;8.27;2.50;;;;;;;;;;4970270;28;20070;-90
2023/08/13 23:18:29;;;;;;;;;;;;;;;;;;4968788;28;20054;-87
2023/08/13 23:29:11;;;;;;;12.25;3.08;;;;;;;;;;4961791;28;20063;-87
2023/08/13 23:31:50;;;;;;;9.45;2.88;;;;;;;;;;4947697;29;20055;-87
2023/08/13 23:34:31;;;;;;;4.07;2.30;;;;;;;;;;4945326;29;20055;-89
2023/08/13 23:37:05;;;;;;;13.85;2.65;;;;;;;;;;4943616;29;20082;-89
2023/08/13 23:39:49;;;;;;;8.68;2.63;;;;;;;;;;4945122;29;20059;-87
2023/08/13 23:42:30;;;;;;;5.65;3.03;;;;;;;;;;4947948;29;20090;-88
2023/08/13 23:45:14;;;;;;;10.73;2.90;;;;;;;;;;4952469;28;20114;-88
2023/08/13 23:48:01;;;;;;;8.38;2.50;;;;;;;;;;4961610;28;20039;-90
2023/08/13 23:50:33;;;;;;;7.00;2.60;;;;;;;;;;4953241;29;20078;-89
2023/08/13 23:53:34;;;;;;;;;;;;;;;;;;;;;
2023/08/13 23:56:28;;;;;;;6.55;3.13;;;;;;;;;;4969398;29;20121;-89
2023/08/13 23:59:09;;;;;;;5.13;2.38;;;;;;;;;;4951238;29;20055;-90
